createdAt,value
2017-12-15T00:02:20.815Z,8.30
2017-12-15T00:04:51.329Z,8.97
2017-12-15T00:07:19.044Z,9.00
2017-12-15T00:09:47.043Z,8.83
2017-12-15T00:12:14.703Z,8.50
2017-12-15T00:14:42.280Z,8.10
2017-12-15T00:17:09.853Z,8.73
2017-12-15T00:19:37.474Z,8.50
2017-12-15T00:22:05.053Z,8.97
2017-12-15T00:24:32.669Z,8.50
2017-12-15T00:27:00.578Z,8.90
2017-12-15T00:29:28.171Z,9.33
2017-12-15T00:31:55.794Z,8.50
2017-12-15T00:34:23.359Z,9.10
2017-12-15T00:36:51.531Z,9.03
2017-12-15T00:39:19.096Z,9.30
2017-12-15T00:41:46.809Z,8.63
2017-12-15T00:44:14.445Z,9.50
2017-12-15T00:46:42.041Z,9.13
2017-12-15T00:49:09.943Z,9.00
2017-12-15T00:51:37.518Z,8.70
2017-12-15T00:54:05.107Z,9.03
2017-12-15T00:56:32.737Z,9.05
2017-12-15T00:59:00.315Z,9.07
2017-12-15T01:01:27.944Z,9.80
2017-12-15T01:03:55.520Z,9.47
2017-12-15T01:06:23.395Z,10.10
2017-12-15T01:08:51.050Z,9.10
2017-12-15T01:11:19.011Z,9.43
2017-12-15T01:13:46.646Z,9.20
2017-12-15T01:16:14.232Z,9.40
2017-12-15T01:18:41.820Z,10.23
2017-12-15T01:21:09.448Z,10.17
2017-12-15T01:23:37.333Z,10.20
2017-12-15T01:26:05.300Z,10.07
2017-12-15T01:28:32.875Z,9.47
2017-12-15T01:31:00.529Z,9.90
2017-12-15T01:33:28.192Z,10.50
2017-12-15T01:35:55.811Z,10.23
2017-12-15T01:38:23.444Z,10.60
2017-12-15T01:40:51.027Z,10.43
2017-12-15T01:43:18.610Z,10.17
2017-12-15T01:45:46.228Z,10.97
2017-12-15T01:48:13.830Z,10.40
2017-12-15T01:50:41.450Z,10.73
2017-12-15T01:53:09.012Z,10.20
2017-12-15T01:55:37.053Z,10.53
2017-12-15T01:58:04.922Z,10.77
2017-12-15T02:00:32.546Z,10.57
2017-12-15T02:03:00.173Z,10.80
2017-12-15T02:05:27.771Z,10.80
2017-12-15T02:07:55.349Z,10.90
2017-12-15T02:10:22.989Z,11.23
2017-12-15T02:12:50.658Z,11.73
2017-12-15T02:15:18.313Z,10.80
2017-12-15T02:17:45.909Z,11.17
2017-12-15T02:20:13.538Z,11.00
2017-12-15T02:22:41.163Z,11.27
2017-12-15T02:25:08.755Z,10.73
2017-12-15T02:27:36.395Z,11.27
2017-12-15T02:30:03.983Z,11.50
2017-12-15T02:32:31.895Z,11.60
2017-12-15T02:34:59.500Z,10.97
2017-12-15T02:37:27.090Z,11.23
2017-12-15T02:39:54.709Z,10.67
2017-12-15T02:42:22.557Z,11.40
2017-12-15T02:44:50.183Z,10.70
2017-12-15T02:47:17.767Z,11.27
2017-12-15T02:49:45.345Z,11.00
2017-12-15T02:52:13.031Z,10.80
2017-12-15T02:54:40.604Z,11.20
2017-12-15T02:57:08.227Z,11.50
2017-12-15T02:59:35.811Z,10.07
2017-12-15T03:02:03.388Z,10.70
2017-12-15T03:04:30.996Z,10.80
2017-12-15T03:06:58.568Z,11.00
2017-12-15T03:09:26.545Z,10.50
2017-12-15T03:11:54.119Z,10.87
2017-12-15T03:14:21.713Z,10.77
2017-12-15T03:16:49.361Z,10.40
2017-12-15T03:19:16.931Z,10.00
2017-12-15T03:21:44.566Z,10.00
2017-12-15T03:24:13.036Z,10.80
2017-12-15T03:26:40.621Z,10.10
2017-12-15T03:29:08.224Z,10.00
2017-12-15T03:31:35.803Z,11.03
2017-12-15T03:34:03.449Z,10.67
2017-12-15T03:36:31.072Z,10.60
2017-12-15T03:38:58.644Z,10.13
2017-12-15T03:41:26.248Z,10.33
2017-12-15T03:43:53.832Z,10.50
2017-12-15T03:46:21.448Z,9.80
2017-12-15T03:48:49.046Z,10.10
2017-12-15T03:51:16.628Z,9.77
2017-12-15T03:53:44.232Z,9.93
2017-12-15T03:56:11.803Z,9.83
2017-12-15T03:58:39.447Z,9.20
2017-12-15T04:01:07.057Z,10.10
2017-12-15T04:03:34.632Z,10.20
2017-12-15T04:06:02.482Z,10.20
2017-12-15T04:08:30.060Z,10.03
2017-12-15T04:10:57.721Z,10.10
2017-12-15T04:13:25.300Z,9.57
2017-12-15T04:15:52.892Z,10.10
2017-12-15T04:18:20.505Z,9.40
2017-12-15T04:20:48.080Z,9.60
2017-12-15T04:23:15.706Z,9.47
2017-12-15T04:25:43.369Z,9.73
2017-12-15T04:28:10.948Z,9.90
2017-12-15T04:30:38.713Z,9.70
2017-12-15T04:33:06.308Z,9.43
2017-12-15T04:35:34.240Z,10.00
2017-12-15T04:38:01.819Z,9.20
2017-12-15T04:40:29.392Z,9.70
2017-12-15T04:42:57.022Z,9.73
2017-12-15T04:45:24.598Z,9.80
2017-12-15T04:47:52.208Z,8.80
2017-12-15T04:50:20.111Z,10.23
2017-12-15T04:52:47.688Z,9.27
2017-12-15T04:55:15.307Z,9.30
2017-12-15T04:57:42.876Z,10.27
2017-12-15T05:00:10.484Z,9.77
2017-12-15T05:02:38.052Z,9.10
2017-12-15T05:05:05.615Z,9.50
2017-12-15T05:07:33.216Z,9.60
2017-12-15T05:10:00.793Z,9.77
2017-12-15T05:12:28.416Z,9.70
2017-12-15T05:14:56.332Z,9.70
2017-12-15T05:17:23.944Z,10.20
2017-12-15T05:19:51.544Z,9.77
2017-12-15T05:22:19.117Z,9.70
2017-12-15T05:24:46.687Z,9.13
2017-12-15T05:27:14.295Z,9.80
2017-12-15T05:29:41.888Z,10.30
2017-12-15T05:32:09.465Z,9.43
2017-12-15T05:34:37.085Z,9.70
2017-12-15T05:37:04.672Z,10.47
2017-12-15T05:39:32.248Z,10.30
2017-12-15T05:41:59.858Z,13.30
2017-12-15T05:44:27.465Z,10.50
2017-12-15T05:46:56.122Z,11.80
2017-12-15T05:49:24.030Z,14.57
2017-12-15T05:54:22.679Z,12.20
2017-12-15T05:56:50.267Z,11.10
2017-12-15T05:59:17.912Z,11.60
2017-12-15T06:01:45.510Z,10.70
2017-12-15T06:04:13.351Z,11.40
2017-12-15T06:06:40.948Z,12.20
2017-12-15T06:09:08.572Z,11.40
2017-12-15T06:11:36.222Z,11.83
2017-12-15T06:14:03.840Z,10.80
2017-12-15T06:16:31.743Z,11.27
2017-12-15T06:18:59.668Z,14.80
2017-12-15T06:21:27.248Z,12.57
2017-12-15T06:23:55.200Z,13.40
2017-12-15T06:26:22.801Z,19.20
2017-12-15T06:28:50.368Z,13.47
2017-12-15T06:31:19.156Z,12.80
2017-12-15T06:33:47.091Z,14.70
2017-12-15T06:36:14.727Z,14.30
2017-12-15T06:38:42.376Z,13.30
2017-12-15T06:41:09.941Z,12.10
2017-12-15T06:43:37.945Z,13.93
2017-12-15T06:46:05.592Z,11.63
2017-12-15T06:48:33.266Z,12.80
2017-12-15T06:51:00.844Z,11.80
2017-12-15T06:53:28.422Z,11.20
2017-12-15T06:55:56.361Z,12.77
2017-12-15T06:58:23.936Z,13.70
2017-12-15T07:00:51.557Z,15.10
2017-12-15T07:03:19.155Z,14.50
2017-12-15T07:05:46.732Z,12.80
2017-12-15T07:08:14.342Z,11.40
2017-12-15T07:10:41.918Z,30.47
2017-12-15T07:13:09.576Z,16.50
2017-12-15T07:15:37.149Z,11.60
2017-12-15T07:18:04.736Z,11.77
2017-12-15T07:20:32.355Z,11.27
2017-12-15T07:23:00.274Z,11.60
2017-12-15T07:25:27.892Z,12.07
2017-12-15T07:27:55.777Z,12.13
2017-12-15T07:30:23.352Z,13.20
2017-12-15T07:32:51.054Z,17.90
2017-12-15T07:35:18.657Z,13.43
2017-12-15T07:37:46.296Z,12.40
2017-12-15T07:40:13.869Z,12.30
2017-12-15T07:42:41.455Z,11.93
2017-12-15T07:45:09.313Z,15.63
2017-12-15T07:47:36.891Z,13.30
2017-12-15T07:50:04.505Z,12.87
2017-12-15T07:52:32.113Z,12.00
2017-12-15T07:54:59.704Z,12.13
2017-12-15T07:57:27.306Z,11.60
2017-12-15T07:59:54.963Z,12.00
2017-12-15T08:02:22.670Z,11.90
2017-12-15T08:04:50.252Z,11.77
2017-12-15T08:07:18.107Z,12.03
2017-12-15T08:09:45.707Z,11.73
2017-12-15T08:12:13.610Z,11.50
2017-12-15T08:14:41.233Z,11.50
2017-12-15T08:17:09.153Z,12.00
2017-12-15T08:19:36.753Z,10.60
2017-12-15T08:22:04.381Z,12.07
2017-12-15T08:24:31.973Z,11.10
2017-12-15T08:26:59.583Z,11.70
2017-12-15T08:29:27.163Z,11.47
2017-12-15T08:31:54.753Z,11.67
2017-12-15T08:34:22.368Z,10.93
2017-12-15T08:36:49.944Z,11.80
2017-12-15T08:39:17.577Z,11.20
2017-12-15T08:41:51.344Z,11.80
2017-12-15T08:44:18.999Z,11.17
2017-12-15T08:46:46.910Z,12.27
2017-12-15T08:49:14.536Z,11.97
2017-12-15T08:51:45.442Z,11.97
2017-12-15T08:54:13.025Z,11.30
2017-12-15T08:56:40.649Z,11.40
2017-12-15T08:59:08.228Z,11.97
2017-12-15T09:01:35.805Z,12.30
2017-12-15T09:04:08.996Z,11.03
2017-12-15T09:06:36.623Z,11.50
2017-12-15T09:09:04.298Z,11.20
2017-12-15T09:11:32.277Z,11.10
2017-12-15T09:13:59.847Z,11.77
2017-12-15T09:16:27.452Z,11.43
2017-12-15T09:18:55.052Z,12.00
2017-12-15T09:21:22.924Z,11.40
2017-12-15T09:23:50.500Z,11.13
2017-12-15T09:26:18.076Z,11.60
2017-12-15T09:28:45.684Z,10.50
2017-12-15T09:31:13.281Z,11.13
2017-12-15T09:33:41.246Z,12.00
2017-12-15T09:36:08.821Z,11.60
2017-12-15T09:38:36.408Z,12.07
2017-12-15T09:41:04.022Z,11.47
2017-12-15T09:43:31.601Z,11.60
2017-12-15T09:45:59.607Z,11.53
2017-12-15T09:48:27.199Z,11.80
2017-12-15T09:50:54.792Z,12.23
2017-12-15T09:53:22.405Z,11.33
2017-12-15T09:55:50.305Z,11.07
2017-12-15T09:58:17.964Z,12.80
2017-12-15T10:00:45.856Z,12.90
2017-12-15T10:03:13.462Z,12.20
2017-12-15T10:05:41.068Z,11.13
2017-12-15T10:08:08.656Z,12.27
2017-12-15T10:10:36.297Z,13.47
2017-12-15T10:13:03.935Z,12.90
2017-12-15T10:15:31.816Z,13.10
2017-12-15T10:17:59.683Z,12.00
2017-12-15T10:20:27.277Z,11.80
2017-12-15T10:22:54.896Z,12.70
2017-12-15T10:25:22.552Z,12.30
2017-12-15T10:27:50.136Z,13.10
2017-12-15T10:30:18.113Z,12.60
2017-12-15T10:32:45.708Z,12.30
2017-12-15T10:35:13.332Z,13.90
2017-12-15T10:37:41.193Z,12.97
2017-12-15T10:40:08.789Z,12.30
2017-12-15T10:42:36.402Z,13.47
2017-12-15T10:45:04.024Z,13.13
2017-12-15T10:47:31.664Z,13.07
2017-12-15T10:49:59.276Z,14.43
2017-12-15T10:52:26.892Z,13.00
2017-12-15T10:54:54.832Z,13.37
2017-12-15T10:57:22.460Z,14.63
2017-12-15T10:59:50.124Z,13.90
2017-12-15T11:02:17.724Z,13.53
2017-12-15T11:04:45.405Z,13.80
2017-12-15T11:07:13.039Z,14.83
2017-12-15T11:09:40.628Z,14.70
2017-12-15T11:12:08.685Z,14.47
2017-12-15T11:14:36.298Z,14.30
2017-12-15T11:17:03.881Z,14.83
2017-12-15T11:19:31.495Z,15.10
2017-12-15T11:21:59.089Z,15.63
2017-12-15T11:24:26.708Z,16.40
2017-12-15T11:26:54.302Z,15.20
2017-12-15T11:29:21.911Z,14.57
2017-12-15T11:31:49.555Z,15.30
2017-12-15T11:34:17.152Z,14.40
2017-12-15T11:36:44.806Z,16.47
2017-12-15T11:39:12.390Z,15.37
2017-12-15T11:41:39.985Z,15.70
2017-12-15T11:44:07.592Z,15.00
2017-12-15T11:46:35.169Z,16.12
2017-12-15T11:49:02.792Z,17.07
2017-12-15T11:51:30.372Z,15.27
2017-12-15T11:53:57.949Z,14.13
2017-12-15T11:56:25.589Z,13.43
2017-12-15T11:58:53.188Z,13.90
2017-12-15T12:01:21.147Z,13.73
2017-12-15T12:03:49.100Z,13.70
2017-12-15T12:06:16.983Z,14.90
2017-12-15T12:08:44.580Z,14.37
2017-12-15T12:11:12.215Z,13.17
2017-12-15T12:13:39.881Z,13.83
2017-12-15T12:16:07.454Z,12.90
2017-12-15T12:18:35.378Z,13.37
2017-12-15T12:23:36.690Z,12.50
2017-12-15T12:26:04.322Z,12.70
2017-12-15T12:28:32.186Z,13.40
2017-12-15T12:30:59.764Z,13.17
2017-12-15T12:33:27.388Z,11.90
2017-12-15T12:35:55.073Z,12.63
2017-12-15T12:38:22.699Z,12.90
2017-12-15T12:40:50.293Z,12.20
2017-12-15T12:43:18.786Z,11.83
2017-12-15T12:45:46.401Z,12.57
2017-12-15T12:48:14.303Z,13.00
2017-12-15T12:50:42.272Z,12.30
2017-12-15T12:53:09.853Z,11.87
2017-12-15T12:55:37.449Z,12.20
2017-12-15T12:58:05.073Z,12.03
2017-12-15T13:00:32.636Z,13.57
2017-12-15T13:03:00.252Z,12.80
2017-12-15T13:05:27.820Z,12.97
2017-12-15T13:07:55.392Z,12.50
2017-12-15T13:10:22.996Z,12.60
2017-12-15T13:12:50.584Z,13.90
2017-12-15T13:15:18.325Z,13.60
2017-12-15T13:17:46.069Z,13.60
2017-12-15T13:20:13.656Z,13.27
2017-12-15T13:22:41.267Z,15.03
2017-12-15T13:25:08.889Z,14.53
2017-12-15T13:27:36.540Z,15.80
2017-12-15T13:30:04.144Z,15.90
2017-12-15T13:32:31.736Z,16.10
2017-12-15T13:34:59.696Z,16.57
2017-12-15T13:37:27.564Z,18.70
2017-12-15T13:39:55.151Z,18.60
2017-12-15T13:42:22.811Z,19.40
2017-12-15T13:44:50.388Z,19.57
2017-12-15T13:47:17.979Z,20.33
2017-12-15T13:49:45.587Z,20.27
2017-12-15T13:52:13.248Z,21.20
2017-12-15T13:54:41.193Z,22.47
2017-12-15T13:57:08.766Z,21.80
2017-12-15T13:59:36.358Z,23.20
2017-12-15T14:02:03.964Z,23.90
2017-12-15T14:04:32.002Z,23.23
2017-12-15T14:07:00.503Z,23.77
2017-12-15T14:09:28.100Z,24.50
2017-12-15T14:11:55.672Z,26.03
2017-12-15T14:14:23.285Z,24.50
2017-12-15T14:16:50.874Z,26.17
2017-12-15T14:19:18.511Z,25.00
2017-12-15T14:21:46.147Z,26.10
2017-12-15T14:24:13.723Z,26.27
2017-12-15T14:26:41.347Z,26.70
2017-12-15T14:29:09.215Z,24.83
2017-12-15T14:31:36.874Z,25.50
2017-12-15T14:34:04.464Z,24.13
2017-12-15T14:36:32.094Z,24.80
2017-12-15T14:38:59.795Z,22.63
2017-12-15T14:41:27.538Z,24.77
2017-12-15T14:43:55.222Z,23.40
2017-12-15T14:46:22.839Z,25.37
2017-12-15T14:48:51.882Z,25.20
2017-12-15T14:51:18.310Z,25.10
2017-12-15T14:53:45.989Z,24.43
2017-12-15T14:56:14.392Z,24.77
2017-12-15T14:58:41.978Z,24.20
2017-12-15T15:01:09.566Z,25.40
2017-12-15T15:03:37.359Z,26.23
2017-12-15T15:06:05.204Z,24.70
2017-12-15T15:08:32.827Z,24.47
2017-12-15T15:11:00.423Z,24.60
2017-12-15T15:13:28.011Z,25.80
2017-12-15T15:15:55.628Z,26.50
2017-12-15T15:18:23.223Z,26.03
2017-12-15T15:20:50.844Z,24.53
2017-12-15T15:23:18.451Z,25.73
2017-12-15T15:25:46.086Z,24.77
2017-12-15T15:28:13.772Z,24.83
2017-12-15T15:30:41.359Z,27.75
2017-12-15T15:33:09.010Z,25.97
2017-12-15T15:35:36.598Z,26.50
2017-12-15T15:38:04.204Z,25.77
2017-12-15T15:40:31.837Z,25.20
2017-12-15T15:42:59.441Z,27.00
2017-12-15T15:45:27.379Z,28.10
2017-12-15T15:47:54.993Z,25.53
2017-12-15T15:50:22.583Z,26.60
2017-12-15T15:52:50.217Z,25.57
2017-12-15T15:55:18.130Z,24.90
2017-12-15T15:57:45.782Z,27.17
2017-12-15T16:00:13.404Z,26.43
2017-12-15T16:02:41.011Z,28.53
2017-12-15T16:05:08.687Z,26.27
2017-12-15T16:07:36.305Z,26.93
2017-12-15T16:10:03.935Z,26.30
2017-12-15T16:12:31.556Z,26.27
2017-12-15T16:14:59.175Z,25.77
2017-12-15T16:17:26.849Z,25.13
2017-12-15T16:19:54.451Z,24.77
2017-12-15T16:22:22.093Z,26.50
2017-12-15T16:24:49.889Z,25.73
2017-12-15T16:27:17.484Z,27.23
2017-12-15T16:29:45.095Z,25.53
2017-12-15T16:32:12.775Z,25.73
2017-12-15T16:34:40.387Z,26.37
2017-12-15T16:37:07.968Z,26.77
2017-12-15T16:39:35.568Z,26.97
2017-12-15T16:42:03.170Z,32.20
2017-12-15T16:44:30.751Z,32.30
2017-12-15T16:46:58.423Z,27.27
2017-12-15T16:49:26.009Z,26.57
2017-12-15T16:51:53.597Z,26.70
2017-12-15T16:54:21.229Z,27.57
2017-12-15T16:56:48.816Z,27.10
2017-12-15T16:59:16.465Z,27.40
2017-12-15T17:01:44.315Z,27.80
2017-12-15T17:04:12.271Z,26.57
2017-12-15T17:06:39.909Z,26.70
2017-12-15T17:09:07.492Z,26.13
2017-12-15T17:11:35.112Z,27.10
2017-12-15T17:14:03.185Z,27.37
2017-12-15T17:16:30.949Z,28.67
2017-12-15T17:18:58.608Z,26.80
2017-12-15T17:21:26.246Z,28.43
2017-12-15T17:23:53.902Z,25.60
2017-12-15T17:26:21.764Z,28.73
2017-12-15T17:28:49.357Z,28.63
2017-12-15T17:31:17.009Z,29.87
2017-12-15T17:33:44.886Z,29.70
2017-12-15T17:36:12.504Z,27.80
2017-12-15T17:38:40.114Z,27.30
2017-12-15T17:41:07.699Z,28.13
2017-12-15T17:43:38.016Z,28.30
2017-12-15T17:46:05.640Z,27.93
2017-12-15T17:48:33.284Z,29.37
2017-12-15T17:51:00.903Z,28.30
2017-12-15T17:53:28.831Z,29.23
2017-12-15T17:55:56.525Z,27.13
2017-12-15T17:58:24.102Z,27.47
2017-12-15T18:00:51.757Z,28.43
2017-12-15T18:03:19.337Z,30.00
2017-12-15T18:05:46.932Z,29.47
2017-12-15T18:08:14.809Z,29.50
2017-12-15T18:10:42.395Z,32.57
2017-12-15T18:13:10.029Z,30.80
2017-12-15T18:15:37.614Z,29.50
2017-12-15T18:18:05.692Z,29.80
2017-12-15T18:20:33.372Z,28.97
2017-12-15T18:23:01.073Z,32.10
2017-12-15T18:25:28.700Z,29.93
2017-12-15T18:27:56.390Z,30.93
2017-12-15T18:30:24.016Z,29.10
2017-12-15T18:32:51.633Z,28.93
2017-12-15T18:35:19.331Z,28.40
2017-12-15T18:37:46.990Z,28.37
2017-12-15T18:40:14.579Z,27.57
2017-12-15T18:42:42.176Z,27.70
2017-12-15T18:45:09.820Z,29.90
2017-12-15T18:47:37.398Z,27.23
2017-12-15T18:50:05.007Z,27.80
2017-12-15T18:52:32.625Z,28.87
2017-12-15T18:55:00.258Z,28.10
2017-12-15T18:57:27.924Z,26.83
2017-12-15T18:59:55.507Z,26.57
2017-12-15T19:02:23.149Z,27.07
2017-12-15T19:04:50.749Z,29.30
2017-12-15T19:07:18.618Z,27.80
2017-12-15T19:09:46.315Z,28.77
2017-12-15T19:12:13.923Z,25.50
2017-12-15T19:14:41.618Z,28.63
2017-12-15T19:17:09.251Z,27.13
2017-12-15T19:19:36.846Z,26.57
2017-12-15T19:22:04.466Z,27.17
2017-12-15T19:24:32.044Z,25.57
2017-12-15T19:26:59.693Z,25.70
2017-12-15T19:29:27.355Z,27.47
2017-12-15T19:31:54.938Z,26.40
2017-12-15T19:34:22.588Z,26.83
2017-12-15T19:36:50.365Z,28.13
2017-12-15T19:39:18.008Z,28.23
2017-12-15T19:41:45.601Z,27.40
2017-12-15T19:44:13.298Z,27.53
2017-12-15T19:46:41.845Z,26.93
2017-12-15T19:49:09.460Z,27.20
2017-12-15T19:51:37.813Z,26.17
2017-12-15T19:54:05.410Z,25.00
2017-12-15T19:56:33.024Z,26.23
2017-12-15T19:59:00.673Z,27.70
2017-12-15T20:01:28.628Z,27.27
2017-12-15T20:03:56.326Z,26.57
2017-12-15T20:06:23.968Z,24.50
2017-12-15T20:08:51.563Z,25.20
2017-12-15T20:11:19.195Z,26.10
2017-12-15T20:13:46.857Z,25.10
2017-12-15T20:16:14.499Z,25.47
2017-12-15T20:18:42.384Z,25.47
2017-12-15T20:21:09.975Z,25.63
2017-12-15T20:23:37.587Z,24.10
2017-12-15T20:26:05.223Z,23.90
2017-12-15T20:28:33.138Z,24.00
2017-12-15T20:31:00.752Z,25.23
2017-12-15T20:33:28.335Z,23.60
2017-12-15T20:35:55.972Z,23.53
2017-12-15T20:38:23.787Z,24.00
2017-12-15T20:40:51.424Z,23.20
2017-12-15T20:43:19.041Z,24.30
2017-12-15T20:45:46.629Z,22.67
2017-12-15T20:48:14.280Z,25.00
2017-12-15T20:50:41.887Z,25.23
2017-12-15T20:53:09.515Z,24.57
2017-12-15T20:55:37.163Z,24.60
2017-12-15T20:58:04.775Z,23.20
2017-12-15T21:00:32.447Z,25.83
2017-12-15T21:03:00.048Z,24.50
2017-12-15T21:05:27.709Z,23.53
2017-12-15T21:07:55.370Z,24.33
2017-12-15T21:10:22.965Z,25.83
2017-12-15T21:12:50.675Z,24.60
2017-12-15T21:15:18.317Z,22.57
2017-12-15T21:17:45.918Z,21.30
2017-12-15T21:20:13.574Z,23.67
2017-12-15T21:22:41.175Z,25.60
2017-12-15T21:25:08.809Z,24.17
2017-12-15T21:27:36.749Z,22.50
2017-12-15T21:30:04.726Z,24.30
2017-12-15T21:32:32.344Z,23.80
2017-12-15T21:34:59.936Z,24.20
2017-12-15T21:37:27.591Z,23.60
2017-12-15T21:39:55.197Z,22.90
2017-12-15T21:42:22.782Z,23.03
2017-12-15T21:44:50.418Z,22.50
2017-12-15T21:47:17.992Z,22.27
2017-12-15T21:49:45.840Z,21.90
2017-12-15T21:52:13.499Z,22.50
2017-12-15T21:54:41.320Z,22.80
2017-12-15T21:57:08.940Z,23.20
2017-12-15T21:59:36.525Z,21.70
2017-12-15T22:02:04.114Z,20.67
2017-12-15T22:04:31.724Z,21.00
2017-12-15T22:06:59.392Z,21.20
2017-12-15T22:09:27.334Z,21.23
2017-12-15T22:11:54.957Z,24.00
2017-12-15T22:14:22.572Z,20.30
2017-12-15T22:16:50.223Z,20.90
2017-12-15T22:19:17.825Z,22.60
2017-12-15T22:21:45.445Z,23.87
2017-12-15T22:24:13.676Z,22.93
2017-12-15T22:26:41.283Z,23.60
2017-12-15T22:29:08.928Z,24.23
2017-12-15T22:31:36.815Z,20.40
2017-12-15T22:34:04.487Z,21.53
2017-12-15T22:36:32.101Z,20.53
2017-12-15T22:38:59.672Z,20.73
2017-12-15T22:41:27.272Z,21.87
2017-12-15T22:43:55.240Z,21.40
2017-12-15T22:46:22.864Z,20.43
2017-12-15T22:48:50.752Z,20.73
2017-12-15T22:51:18.369Z,19.77
2017-12-15T22:53:46.284Z,19.90
2017-12-15T22:56:13.880Z,20.53
2017-12-15T22:58:41.500Z,20.83
2017-12-15T23:01:09.121Z,21.53
2017-12-15T23:03:36.948Z,21.77
2017-12-15T23:06:04.573Z,20.60
2017-12-15T23:08:32.192Z,20.10
2017-12-15T23:10:59.808Z,19.93
2017-12-15T23:13:27.376Z,19.80
2017-12-15T23:15:54.988Z,21.13
2017-12-15T23:18:22.606Z,21.20
2017-12-15T23:20:50.183Z,21.47
2017-12-15T23:23:17.817Z,20.73
2017-12-15T23:25:45.402Z,21.63
2017-12-15T23:28:13.259Z,21.13
2017-12-15T23:30:41.128Z,21.80
2017-12-15T23:33:09.004Z,22.20
2017-12-15T23:35:36.636Z,22.43
2017-12-15T23:38:04.218Z,21.30
2017-12-15T23:40:31.800Z,21.00
2017-12-15T23:42:59.418Z,22.70
2017-12-15T23:45:27.033Z,20.87
2017-12-15T23:47:54.650Z,21.73
2017-12-15T23:50:22.244Z,22.10
2017-12-15T23:52:49.847Z,21.97
2017-12-15T23:55:29.636Z,21.80
2017-12-15T23:57:57.234Z,22.17
